sensor_id;sensor_type;location;lat;lon;timestamp;P1;durP1;ratioP1;P2;durP2;ratioP2
1811;SDS011;904;47.814;11.134;2024-01-30T00:01:01;13.05;;;6.57;;
1811;SDS011;904;47.814;11.134;2024-01-30T00:03:29;12.80;;;5.78;;
1811;SDS011;904;47.814;11.134;2024-01-30T00:05:59;6.22;;;5.38;;
1811;SDS011;904;47.814;11.134;2024-01-30T00:08:26;9.40;;;5.65;;
1811;SDS011;904;47.814;11.134;2024-01-30T00:10:53;8.73;;;6.10;;
1811;SDS011;904;47.814;11.134;2024-01-30T00:13:20;12.15;;;6.53;;
1811;SDS011;904;47.814;11.134;2024-01-30T00:15:49;11.98;;;6.15;;
1811;SDS011;904;47.814;11.134;2024-01-30T00:18:16;13.52;;;7.63;;
1811;SDS011;904;47.814;11.134;2024-01-30T00:20:43;9.73;;;5.70;;
1811;SDS011;904;47.814;11.134;2024-01-30T00:23:11;11.85;;;7.00;;
1811;SDS011;904;47.814;11.134;2024-01-30T00:25:40;10.57;;;6.88;;
1811;SDS011;904;47.814;11.134;2024-01-30T00:28:07;8.80;;;5.80;;
1811;SDS011;904;47.814;11.134;2024-01-30T00:30:35;9.07;;;5.85;;
1811;SDS011;904;47.814;11.134;2024-01-30T00:33:05;9.93;;;5.40;;
1811;SDS011;904;47.814;11.134;2024-01-30T00:35:33;8.70;;;5.05;;
1811;SDS011;904;47.814;11.134;2024-01-30T00:38:03;10.48;;;5.47;;
1811;SDS011;904;47.814;11.134;2024-01-30T00:40:33;7.25;;;4.97;;
1811;SDS011;904;47.814;11.134;2024-01-30T00:42:59;9.60;;;5.20;;
1811;SDS011;904;47.814;11.134;2024-01-30T00:45:26;9.77;;;5.85;;
1811;SDS011;904;47.814;11.134;2024-01-30T00:47:53;6.35;;;4.32;;
1811;SDS011;904;47.814;11.134;2024-01-30T00:50:22;6.43;;;4.22;;
1811;SDS011;904;47.814;11.134;2024-01-30T00:52:58;6.00;;;3.95;;
1811;SDS011;904;47.814;11.134;2024-01-30T00:55:25;8.85;;;4.40;;
1811;SDS011;904;47.814;11.134;2024-01-30T00:57:51;9.07;;;4.70;;
1811;SDS011;904;47.814;11.134;2024-01-30T01:00:24;6.10;;;4.13;;
1811;SDS011;904;47.814;11.134;2024-01-30T01:02:57;5.85;;;3.67;;
1811;SDS011;904;47.814;11.134;2024-01-30T01:05:29;5.32;;;3.20;;
1811;SDS011;904;47.814;11.134;2024-01-30T01:07:56;4.88;;;3.42;;
1811;SDS011;904;47.814;11.134;2024-01-30T01:10:23;6.25;;;3.40;;
1811;SDS011;904;47.814;11.134;2024-01-30T01:12:50;9.30;;;4.20;;
1811;SDS011;904;47.814;11.134;2024-01-30T01:15:17;11.27;;;4.13;;
1811;SDS011;904;47.814;11.134;2024-01-30T01:17:45;9.55;;;4.47;;
1811;SDS011;904;47.814;11.134;2024-01-30T01:20:12;6.60;;;3.75;;
1811;SDS011;904;47.814;11.134;2024-01-30T01:22:41;7.05;;;3.38;;
1811;SDS011;904;47.814;11.134;2024-01-30T01:25:08;5.57;;;4.07;;
1811;SDS011;904;47.814;11.134;2024-01-30T01:27:35;6.68;;;4.22;;
1811;SDS011;904;47.814;11.134;2024-01-30T01:30:08;4.47;;;2.92;;
1811;SDS011;904;47.814;11.134;2024-01-30T01:32:36;8.18;;;4.10;;
1811;SDS011;904;47.814;11.134;2024-01-30T01:35:09;5.95;;;3.55;;
1811;SDS011;904;47.814;11.134;2024-01-30T01:37:36;5.53;;;3.72;;
1811;SDS011;904;47.814;11.134;2024-01-30T01:40:06;7.43;;;4.25;;
1811;SDS011;904;47.814;11.134;2024-01-30T01:42:34;8.25;;;4.53;;
1811;SDS011;904;47.814;11.134;2024-01-30T01:45:01;8.90;;;4.10;;
1811;SDS011;904;47.814;11.134;2024-01-30T01:47:33;5.57;;;3.05;;
1811;SDS011;904;47.814;11.134;2024-01-30T01:50:00;7.10;;;4.18;;
1811;SDS011;904;47.814;11.134;2024-01-30T01:52:27;6.30;;;3.33;;
1811;SDS011;904;47.814;11.134;2024-01-30T01:54:55;7.93;;;3.80;;
1811;SDS011;904;47.814;11.134;2024-01-30T01:57:23;6.43;;;3.97;;
1811;SDS011;904;47.814;11.134;2024-01-30T01:59:50;5.70;;;4.03;;
1811;SDS011;904;47.814;11.134;2024-01-30T02:02:18;8.90;;;4.07;;
1811;SDS011;904;47.814;11.134;2024-01-30T02:04:46;5.53;;;3.78;;
1811;SDS011;904;47.814;11.134;2024-01-30T02:07:13;6.60;;;3.47;;
1811;SDS011;904;47.814;11.134;2024-01-30T02:09:41;4.70;;;3.35;;
1811;SDS011;904;47.814;11.134;2024-01-30T02:12:08;9.68;;;7.15;;
1811;SDS011;904;47.814;11.134;2024-01-30T02:14:45;7.30;;;5.10;;
1811;SDS011;904;47.814;11.134;2024-01-30T02:17:12;6.50;;;4.30;;
1811;SDS011;904;47.814;11.134;2024-01-30T02:19:40;6.13;;;3.90;;
1811;SDS011;904;47.814;11.134;2024-01-30T02:22:08;9.10;;;5.15;;
1811;SDS011;904;47.814;11.134;2024-01-30T02:24:36;8.38;;;4.85;;
1811;SDS011;904;47.814;11.134;2024-01-30T02:27:03;10.93;;;4.63;;
1811;SDS011;904;47.814;11.134;2024-01-30T02:29:30;6.07;;;3.83;;
1811;SDS011;904;47.814;11.134;2024-01-30T02:31:57;8.35;;;4.13;;
1811;SDS011;904;47.814;11.134;2024-01-30T02:34:24;7.38;;;3.78;;
1811;SDS011;904;47.814;11.134;2024-01-30T02:36:51;8.07;;;4.10;;
1811;SDS011;904;47.814;11.134;2024-01-30T02:39:20;5.93;;;3.63;;
1811;SDS011;904;47.814;11.134;2024-01-30T02:41:47;7.70;;;4.20;;
1811;SDS011;904;47.814;11.134;2024-01-30T02:44:16;7.05;;;4.50;;
1811;SDS011;904;47.814;11.134;2024-01-30T02:46:43;7.50;;;3.85;;
1811;SDS011;904;47.814;11.134;2024-01-30T02:49:10;8.63;;;4.50;;
1811;SDS011;904;47.814;11.134;2024-01-30T02:51:37;11.07;;;4.85;;
1811;SDS011;904;47.814;11.134;2024-01-30T02:54:04;6.97;;;3.88;;
1811;SDS011;904;47.814;11.134;2024-01-30T02:56:33;8.65;;;3.95;;
1811;SDS011;904;47.814;11.134;2024-01-30T02:59:00;7.18;;;4.22;;
1811;SDS011;904;47.814;11.134;2024-01-30T03:01:27;6.03;;;3.70;;
1811;SDS011;904;47.814;11.134;2024-01-30T03:03:54;6.75;;;4.10;;
1811;SDS011;904;47.814;11.134;2024-01-30T03:06:21;6.68;;;4.30;;
1811;SDS011;904;47.814;11.134;2024-01-30T03:08:48;7.53;;;4.38;;
1811;SDS011;904;47.814;11.134;2024-01-30T03:11:15;8.25;;;4.13;;
1811;SDS011;904;47.814;11.134;2024-01-30T03:13:43;6.75;;;4.43;;
1811;SDS011;904;47.814;11.134;2024-01-30T03:16:10;5.93;;;3.15;;
1811;SDS011;904;47.814;11.134;2024-01-30T03:18:41;5.93;;;3.85;;
1811;SDS011;904;47.814;11.134;2024-01-30T03:21:08;6.60;;;3.88;;
1811;SDS011;904;47.814;11.134;2024-01-30T03:23:35;8.80;;;3.55;;
1811;SDS011;904;47.814;11.134;2024-01-30T03:26:03;5.60;;;3.97;;
1811;SDS011;904;47.814;11.134;2024-01-30T03:28:31;9.05;;;4.68;;
1811;SDS011;904;47.814;11.134;2024-01-30T03:31:00;8.65;;;3.65;;
1811;SDS011;904;47.814;11.134;2024-01-30T03:33:27;8.82;;;4.15;;
1811;SDS011;904;47.814;11.134;2024-01-30T03:35:54;6.47;;;3.42;;
1811;SDS011;904;47.814;11.134;2024-01-30T03:38:21;5.55;;;3.47;;
1811;SDS011;904;47.814;11.134;2024-01-30T03:40:48;6.90;;;4.10;;
1811;SDS011;904;47.814;11.134;2024-01-30T03:43:15;6.68;;;3.25;;
1811;SDS011;904;47.814;11.134;2024-01-30T03:45:42;8.65;;;3.13;;
1811;SDS011;904;47.814;11.134;2024-01-30T03:48:11;5.45;;;3.03;;
1811;SDS011;904;47.814;11.134;2024-01-30T03:50:38;4.70;;;2.97;;
1811;SDS011;904;47.814;11.134;2024-01-30T03:53:05;5.18;;;3.60;;
1811;SDS011;904;47.814;11.134;2024-01-30T03:55:32;7.80;;;4.00;;
1811;SDS011;904;47.814;11.134;2024-01-30T03:57:59;4.82;;;3.58;;
1811;SDS011;904;47.814;11.134;2024-01-30T04:00:26;5.90;;;3.83;;
1811;SDS011;904;47.814;11.134;2024-01-30T04:02:53;5.30;;;3.38;;
1811;SDS011;904;47.814;11.134;2024-01-30T04:05:22;7.68;;;3.75;;
1811;SDS011;904;47.814;11.134;2024-01-30T04:07:49;6.18;;;3.33;;
1811;SDS011;904;47.814;11.134;2024-01-30T04:10:16;7.47;;;3.40;;
1811;SDS011;904;47.814;11.134;2024-01-30T04:12:43;5.68;;;3.95;;
1811;SDS011;904;47.814;11.134;2024-01-30T04:15:10;5.35;;;3.42;;
1811;SDS011;904;47.814;11.134;2024-01-30T04:17:38;5.85;;;3.80;;
1811;SDS011;904;47.814;11.134;2024-01-30T04:20:06;6.10;;;3.70;;
1811;SDS011;904;47.814;11.134;2024-01-30T04:22:35;4.32;;;3.00;;
1811;SDS011;904;47.814;11.134;2024-01-30T04:25:02;8.15;;;3.58;;
1811;SDS011;904;47.814;11.134;2024-01-30T04:27:29;10.48;;;4.50;;
1811;SDS011;904;47.814;11.134;2024-01-30T04:29:56;8.48;;;5.78;;
1811;SDS011;904;47.814;11.134;2024-01-30T04:32:23;5.70;;;4.40;;
1811;SDS011;904;47.814;11.134;2024-01-30T04:34:50;9.38;;;5.80;;
1811;SDS011;904;47.814;11.134;2024-01-30T04:37:17;8.25;;;4.63;;
1811;SDS011;904;47.814;11.134;2024-01-30T04:39:45;8.57;;;5.45;;
1811;SDS011;904;47.814;11.134;2024-01-30T04:42:12;10.77;;;6.22;;
1811;SDS011;904;47.814;11.134;2024-01-30T04:44:39;7.72;;;5.78;;
1811;SDS011;904;47.814;11.134;2024-01-30T04:47:12;6.22;;;4.40;;
1811;SDS011;904;47.814;11.134;2024-01-30T04:49:39;5.82;;;4.22;;
1811;SDS011;904;47.814;11.134;2024-01-30T04:52:06;8.43;;;5.05;;
1811;SDS011;904;47.814;11.134;2024-01-30T04:54:33;7.57;;;3.70;;
1811;SDS011;904;47.814;11.134;2024-01-30T04:57:02;10.50;;;6.22;;
1811;SDS011;904;47.814;11.134;2024-01-30T04:59:30;9.38;;;6.00;;
1811;SDS011;904;47.814;11.134;2024-01-30T05:01:57;7.38;;;5.72;;
1811;SDS011;904;47.814;11.134;2024-01-30T05:04:24;7.25;;;4.90;;
1811;SDS011;904;47.814;11.134;2024-01-30T05:06:51;7.25;;;4.40;;
1811;SDS011;904;47.814;11.134;2024-01-30T05:09:18;5.88;;;3.40;;
1811;SDS011;904;47.814;11.134;2024-01-30T05:11:46;7.07;;;3.30;;
1811;SDS011;904;47.814;11.134;2024-01-30T05:14:15;6.97;;;3.30;;
1811;SDS011;904;47.814;11.134;2024-01-30T05:16:45;6.28;;;4.00;;
1811;SDS011;904;47.814;11.134;2024-01-30T05:19:12;8.40;;;4.90;;
1811;SDS011;904;47.814;11.134;2024-01-30T05:21:40;6.05;;;4.05;;
1811;SDS011;904;47.814;11.134;2024-01-30T05:24:07;6.90;;;3.45;;
1811;SDS011;904;47.814;11.134;2024-01-30T05:26:35;7.25;;;4.10;;
1811;SDS011;904;47.814;11.134;2024-01-30T05:29:02;7.47;;;4.18;;
1811;SDS011;904;47.814;11.134;2024-01-30T05:31:31;8.15;;;3.83;;
1811;SDS011;904;47.814;11.134;2024-01-30T05:33:58;6.65;;;3.30;;
1811;SDS011;904;47.814;11.134;2024-01-30T05:36:25;6.28;;;3.95;;
1811;SDS011;904;47.814;11.134;2024-01-30T05:38:52;7.10;;;4.22;;
1811;SDS011;904;47.814;11.134;2024-01-30T05:41:19;5.60;;;3.78;;
1811;SDS011;904;47.814;11.134;2024-01-30T05:43:47;7.10;;;4.20;;
1811;SDS011;904;47.814;11.134;2024-01-30T05:46:14;4.90;;;3.08;;
1811;SDS011;904;47.814;11.134;2024-01-30T05:48:42;6.20;;;3.20;;
1811;SDS011;904;47.814;11.134;2024-01-30T05:51:09;5.47;;;3.33;;
1811;SDS011;904;47.814;11.134;2024-01-30T05:53:36;6.55;;;4.20;;
1811;SDS011;904;47.814;11.134;2024-01-30T05:56:05;5.68;;;3.00;;
1811;SDS011;904;47.814;11.134;2024-01-30T05:58:32;6.72;;;3.97;;
1811;SDS011;904;47.814;11.134;2024-01-30T06:00:59;9.38;;;3.72;;
1811;SDS011;904;47.814;11.134;2024-01-30T06:03:26;6.10;;;2.97;;
1811;SDS011;904;47.814;11.134;2024-01-30T06:05:55;6.50;;;3.03;;
1811;SDS011;904;47.814;11.134;2024-01-30T06:08:21;5.70;;;3.30;;
1811;SDS011;904;47.814;11.134;2024-01-30T06:10:48;7.90;;;2.90;;
1811;SDS011;904;47.814;11.134;2024-01-30T06:13:15;4.60;;;2.70;;
1811;SDS011;904;47.814;11.134;2024-01-30T06:15:42;5.35;;;3.42;;
1811;SDS011;904;47.814;11.134;2024-01-30T06:18:09;4.90;;;2.90;;
1811;SDS011;904;47.814;11.134;2024-01-30T06:20:36;8.55;;;5.55;;
1811;SDS011;904;47.814;11.134;2024-01-30T06:23:05;10.40;;;4.50;;
1811;SDS011;904;47.814;11.134;2024-01-30T06:25:32;10.52;;;6.55;;
1811;SDS011;904;47.814;11.134;2024-01-30T06:27:59;10.70;;;5.78;;
1811;SDS011;904;47.814;11.134;2024-01-30T06:30:26;10.43;;;5.75;;
1811;SDS011;904;47.814;11.134;2024-01-30T06:32:53;10.73;;;7.00;;
1811;SDS011;904;47.814;11.134;2024-01-30T06:35:20;14.25;;;5.43;;
1811;SDS011;904;47.814;11.134;2024-01-30T06:37:47;7.80;;;4.30;;
1811;SDS011;904;47.814;11.134;2024-01-30T06:40:16;11.45;;;5.28;;
1811;SDS011;904;47.814;11.134;2024-01-30T06:42:43;8.35;;;4.38;;
1811;SDS011;904;47.814;11.134;2024-01-30T06:45:09;8.25;;;5.00;;
1811;SDS011;904;47.814;11.134;2024-01-30T06:47:37;10.52;;;5.00;;
1811;SDS011;904;47.814;11.134;2024-01-30T06:50:04;10.45;;;5.13;;
1811;SDS011;904;47.814;11.134;2024-01-30T06:52:32;7.65;;;4.82;;
1811;SDS011;904;47.814;11.134;2024-01-30T06:54:58;7.05;;;4.13;;
1811;SDS011;904;47.814;11.134;2024-01-30T06:57:27;6.50;;;4.00;;
1811;SDS011;904;47.814;11.134;2024-01-30T06:59:55;6.43;;;3.83;;
1811;SDS011;904;47.814;11.134;2024-01-30T07:02:22;6.97;;;3.60;;
1811;SDS011;904;47.814;11.134;2024-01-30T07:04:51;10.70;;;4.85;;
1811;SDS011;904;47.814;11.134;2024-01-30T07:07:18;7.57;;;5.25;;
1811;SDS011;904;47.814;11.134;2024-01-30T07:09:45;8.23;;;4.45;;
1811;SDS011;904;47.814;11.134;2024-01-30T07:12:14;8.38;;;5.03;;
1811;SDS011;904;47.814;11.134;2024-01-30T07:14:43;8.52;;;4.72;;
1811;SDS011;904;47.814;11.134;2024-01-30T07:17:10;9.35;;;5.50;;
1811;SDS011;904;47.814;11.134;2024-01-30T07:19:37;10.65;;;5.38;;
1811;SDS011;904;47.814;11.134;2024-01-30T07:22:04;11.85;;;6.35;;
1811;SDS011;904;47.814;11.134;2024-01-30T07:24:31;15.80;;;8.07;;
1811;SDS011;904;47.814;11.134;2024-01-30T07:26:58;11.90;;;6.53;;
1811;SDS011;904;47.814;11.134;2024-01-30T07:29:25;17.27;;;8.80;;
1811;SDS011;904;47.814;11.134;2024-01-30T07:31:53;16.52;;;8.13;;
1811;SDS011;904;47.814;11.134;2024-01-30T07:34:20;18.13;;;9.20;;
1811;SDS011;904;47.814;11.134;2024-01-30T07:36:47;19.45;;;11.60;;
1811;SDS011;904;47.814;11.134;2024-01-30T07:39:14;24.42;;;12.70;;
1811;SDS011;904;47.814;11.134;2024-01-30T07:41:41;20.10;;;12.10;;
1811;SDS011;904;47.814;11.134;2024-01-30T07:44:08;19.10;;;11.07;;
1811;SDS011;904;47.814;11.134;2024-01-30T07:46:35;16.13;;;10.52;;
1811;SDS011;904;47.814;11.134;2024-01-30T07:49:03;18.45;;;9.95;;
1811;SDS011;904;47.814;11.134;2024-01-30T07:51:30;9.02;;;6.15;;
1811;SDS011;904;47.814;11.134;2024-01-30T07:53:58;9.63;;;5.22;;
1811;SDS011;904;47.814;11.134;2024-01-30T07:56:25;7.13;;;4.50;;
1811;SDS011;904;47.814;11.134;2024-01-30T07:58:52;8.45;;;4.22;;
1811;SDS011;904;47.814;11.134;2024-01-30T08:01:19;7.57;;;5.15;;
1811;SDS011;904;47.814;11.134;2024-01-30T08:03:46;8.38;;;5.43;;
1811;SDS011;904;47.814;11.134;2024-01-30T08:06:14;8.45;;;5.38;;
1811;SDS011;904;47.814;11.134;2024-01-30T08:08:41;9.05;;;5.70;;
1811;SDS011;904;47.814;11.134;2024-01-30T08:11:08;10.75;;;5.00;;
1811;SDS011;904;47.814;11.134;2024-01-30T08:13:35;9.63;;;5.85;;
1811;SDS011;904;47.814;11.134;2024-01-30T08:16:02;8.38;;;6.00;;
1811;SDS011;904;47.814;11.134;2024-01-30T08:18:29;7.63;;;6.07;;
1811;SDS011;904;47.814;11.134;2024-01-30T08:20:56;7.47;;;5.25;;
1811;SDS011;904;47.814;11.134;2024-01-30T08:23:25;8.60;;;5.60;;
1811;SDS011;904;47.814;11.134;2024-01-30T08:25:52;8.90;;;5.97;;
1811;SDS011;904;47.814;11.134;2024-01-30T08:28:18;10.48;;;7.35;;
1811;SDS011;904;47.814;11.134;2024-01-30T08:30:45;11.35;;;7.22;;
1811;SDS011;904;47.814;11.134;2024-01-30T08:33:12;11.52;;;8.35;;
1811;SDS011;904;47.814;11.134;2024-01-30T08:35:39;13.60;;;8.48;;
1811;SDS011;904;47.814;11.134;2024-01-30T08:38:07;10.93;;;7.90;;
1811;SDS011;904;47.814;11.134;2024-01-30T08:40:35;17.08;;;10.40;;
1811;SDS011;904;47.814;11.134;2024-01-30T08:43:02;28.33;;;20.23;;
1811;SDS011;904;47.814;11.134;2024-01-30T08:45:29;23.52;;;13.38;;
1811;SDS011;904;47.814;11.134;2024-01-30T08:47:56;13.32;;;10.95;;
1811;SDS011;904;47.814;11.134;2024-01-30T08:50:23;16.05;;;10.10;;
1811;SDS011;904;47.814;11.134;2024-01-30T08:52:50;21.48;;;13.63;;
1811;SDS011;904;47.814;11.134;2024-01-30T08:55:22;28.77;;;15.48;;
1811;SDS011;904;47.814;11.134;2024-01-30T08:57:51;22.08;;;13.38;;
1811;SDS011;904;47.814;11.134;2024-01-30T09:00:18;14.68;;;9.25;;
1811;SDS011;904;47.814;11.134;2024-01-30T09:02:45;16.35;;;7.00;;
1811;SDS011;904;47.814;11.134;2024-01-30T09:05:12;9.52;;;6.22;;
1811;SDS011;904;47.814;11.134;2024-01-30T09:07:39;12.48;;;9.30;;
1811;SDS011;904;47.814;11.134;2024-01-30T09:10:11;12.23;;;10.07;;
1811;SDS011;904;47.814;11.134;2024-01-30T09:12:39;7.70;;;6.70;;
1811;SDS011;904;47.814;11.134;2024-01-30T09:17:49;10.90;;;5.90;;
1811;SDS011;904;47.814;11.134;2024-01-30T09:20:16;7.67;;;5.40;;
1811;SDS011;904;47.814;11.134;2024-01-30T09:22:45;10.40;;;7.47;;
1811;SDS011;904;47.814;11.134;2024-01-30T09:25:13;11.70;;;7.43;;
1811;SDS011;904;47.814;11.134;2024-01-30T09:27:40;11.30;;;8.57;;
1811;SDS011;904;47.814;11.134;2024-01-30T09:30:08;11.67;;;8.93;;
1811;SDS011;904;47.814;11.134;2024-01-30T09:32:39;9.10;;;8.20;;
1811;SDS011;904;47.814;11.134;2024-01-30T09:35:06;10.63;;;8.27;;
1811;SDS011;904;47.814;11.134;2024-01-30T09:37:33;11.67;;;9.50;;
1811;SDS011;904;47.814;11.134;2024-01-30T09:40:03;13.90;;;10.83;;
1811;SDS011;904;47.814;11.134;2024-01-30T09:42:33;12.37;;;8.90;;
1811;SDS011;904;47.814;11.134;2024-01-30T09:45:01;17.80;;;9.77;;
1811;SDS011;904;47.814;11.134;2024-01-30T09:47:30;13.53;;;10.27;;
1811;SDS011;904;47.814;11.134;2024-01-30T09:50:00;12.00;;;9.60;;
1811;SDS011;904;47.814;11.134;2024-01-30T09:52:31;12.13;;;8.77;;
1811;SDS011;904;47.814;11.134;2024-01-30T09:54:59;13.03;;;10.47;;
1811;SDS011;904;47.814;11.134;2024-01-30T09:57:28;13.00;;;8.23;;
1811;SDS011;904;47.814;11.134;2024-01-30T09:59:55;9.80;;;6.63;;
1811;SDS011;904;47.814;11.134;2024-01-30T10:02:24;9.37;;;7.40;;
1811;SDS011;904;47.814;11.134;2024-01-30T10:04:51;9.60;;;6.80;;
1811;SDS011;904;47.814;11.134;2024-01-30T10:07:20;8.23;;;4.90;;
1811;SDS011;904;47.814;11.134;2024-01-30T10:09:48;11.50;;;7.83;;
1811;SDS011;904;47.814;11.134;2024-01-30T10:12:15;10.70;;;7.27;;
1811;SDS011;904;47.814;11.134;2024-01-30T10:14:42;12.50;;;8.00;;
1811;SDS011;904;47.814;11.134;2024-01-30T10:17:10;10.40;;;7.23;;
1811;SDS011;904;47.814;11.134;2024-01-30T10:19:38;10.23;;;4.80;;
1811;SDS011;904;47.814;11.134;2024-01-30T10:22:06;8.37;;;3.60;;
1811;SDS011;904;47.814;11.134;2024-01-30T10:24:35;5.57;;;3.00;;
1811;SDS011;904;47.814;11.134;2024-01-30T10:27:02;4.80;;;3.17;;
1811;SDS011;904;47.814;11.134;2024-01-30T10:29:31;5.33;;;2.90;;
1811;SDS011;904;47.814;11.134;2024-01-30T10:31:58;4.13;;;2.00;;
1811;SDS011;904;47.814;11.134;2024-01-30T10:34:26;4.10;;;2.50;;
1811;SDS011;904;47.814;11.134;2024-01-30T10:36:55;4.87;;;3.63;;
1811;SDS011;904;47.814;11.134;2024-01-30T10:39:28;4.63;;;2.70;;
1811;SDS011;904;47.814;11.134;2024-01-30T10:41:58;4.50;;;2.47;;
1811;SDS011;904;47.814;11.134;2024-01-30T10:44:33;6.73;;;2.90;;
1811;SDS011;904;47.814;11.134;2024-01-30T10:47:05;7.30;;;2.67;;
1811;SDS011;904;47.814;11.134;2024-01-30T10:49:36;4.23;;;2.50;;
1811;SDS011;904;47.814;11.134;2024-01-30T10:52:04;6.00;;;2.63;;
1811;SDS011;904;47.814;11.134;2024-01-30T10:54:32;4.67;;;2.30;;
1811;SDS011;904;47.814;11.134;2024-01-30T10:57:03;5.60;;;2.30;;
1811;SDS011;904;47.814;11.134;2024-01-30T10:59:30;3.13;;;1.70;;
1811;SDS011;904;47.814;11.134;2024-01-30T11:01:59;4.00;;;1.87;;
1811;SDS011;904;47.814;11.134;2024-01-30T11:04:26;4.73;;;1.60;;
1811;SDS011;904;47.814;11.134;2024-01-30T11:06:53;4.47;;;2.20;;
1811;SDS011;904;47.814;11.134;2024-01-30T11:09:20;4.63;;;2.40;;
1811;SDS011;904;47.814;11.134;2024-01-30T11:11:48;7.67;;;2.17;;
1811;SDS011;904;47.814;11.134;2024-01-30T11:14:17;3.60;;;1.90;;
1811;SDS011;904;47.814;11.134;2024-01-30T11:16:50;4.87;;;2.70;;
1811;SDS011;904;47.814;11.134;2024-01-30T11:19:22;6.93;;;2.37;;
1811;SDS011;904;47.814;11.134;2024-01-30T11:21:50;4.27;;;2.43;;
1811;SDS011;904;47.814;11.134;2024-01-30T11:24:19;4.63;;;3.10;;
1811;SDS011;904;47.814;11.134;2024-01-30T11:26:47;6.20;;;3.73;;
1811;SDS011;904;47.814;11.134;2024-01-30T11:29:14;5.63;;;2.40;;
1811;SDS011;904;47.814;11.134;2024-01-30T11:31:51;14.10;;;3.10;;
1811;SDS011;904;47.814;11.134;2024-01-30T11:34:18;3.63;;;1.77;;
1811;SDS011;904;47.814;11.134;2024-01-30T11:36:47;7.03;;;1.67;;
1811;SDS011;904;47.814;11.134;2024-01-30T11:39:20;3.23;;;2.03;;
1811;SDS011;904;47.814;11.134;2024-01-30T11:41:47;5.83;;;2.10;;
1811;SDS011;904;47.814;11.134;2024-01-30T11:44:19;4.77;;;2.07;;
1811;SDS011;904;47.814;11.134;2024-01-30T11:46:49;3.00;;;1.50;;
1811;SDS011;904;47.814;11.134;2024-01-30T11:49:17;3.13;;;1.60;;
1811;SDS011;904;47.814;11.134;2024-01-30T11:51:45;5.70;;;1.70;;
1811;SDS011;904;47.814;11.134;2024-01-30T11:54:13;8.10;;;2.53;;
1811;SDS011;904;47.814;11.134;2024-01-30T11:56:41;3.37;;;1.80;;
1811;SDS011;904;47.814;11.134;2024-01-30T11:59:09;7.43;;;1.90;;
1811;SDS011;904;47.814;11.134;2024-01-30T12:01:37;3.13;;;1.63;;
1811;SDS011;904;47.814;11.134;2024-01-30T12:04:04;4.77;;;2.67;;
1811;SDS011;904;47.814;11.134;2024-01-30T12:06:40;7.07;;;2.47;;
1811;SDS011;904;47.814;11.134;2024-01-30T12:09:12;4.53;;;2.43;;
1811;SDS011;904;47.814;11.134;2024-01-30T12:11:45;5.60;;;2.63;;
1811;SDS011;904;47.814;11.134;2024-01-30T12:14:19;3.40;;;1.90;;
1811;SDS011;904;47.814;11.134;2024-01-30T12:16:56;7.97;;;2.20;;
1811;SDS011;904;47.814;11.134;2024-01-30T12:19:23;3.73;;;1.93;;
1811;SDS011;904;47.814;11.134;2024-01-30T12:21:54;3.33;;;2.03;;
1811;SDS011;904;47.814;11.134;2024-01-30T12:24:23;6.00;;;1.93;;
1811;SDS011;904;47.814;11.134;2024-01-30T12:27:09;8.33;;;2.37;;
1811;SDS011;904;47.814;11.134;2024-01-30T12:29:36;5.80;;;1.60;;
1811;SDS011;904;47.814;11.134;2024-01-30T12:32:14;5.13;;;2.07;;
1811;SDS011;904;47.814;11.134;2024-01-30T12:34:41;4.93;;;2.50;;
1811;SDS011;904;47.814;11.134;2024-01-30T12:37:08;5.10;;;2.07;;
1811;SDS011;904;47.814;11.134;2024-01-30T12:39:36;8.93;;;2.60;;
1811;SDS011;904;47.814;11.134;2024-01-30T12:42:04;3.67;;;2.20;;
1811;SDS011;904;47.814;11.134;2024-01-30T12:44:31;6.00;;;2.63;;
1811;SDS011;904;47.814;11.134;2024-01-30T12:46:58;5.47;;;2.17;;
1811;SDS011;904;47.814;11.134;2024-01-30T12:49:26;5.97;;;2.30;;
1811;SDS011;904;47.814;11.134;2024-01-30T12:51:53;5.57;;;2.20;;
1811;SDS011;904;47.814;11.134;2024-01-30T12:54:20;6.57;;;2.03;;
1811;SDS011;904;47.814;11.134;2024-01-30T12:56:48;5.13;;;2.00;;
1811;SDS011;904;47.814;11.134;2024-01-30T12:59:15;4.00;;;1.70;;
1811;SDS011;904;47.814;11.134;2024-01-30T13:01:42;4.50;;;1.77;;
1811;SDS011;904;47.814;11.134;2024-01-30T13:04:09;7.10;;;2.30;;
1811;SDS011;904;47.814;11.134;2024-01-30T13:06:39;4.50;;;1.57;;
1811;SDS011;904;47.814;11.134;2024-01-30T13:09:06;4.07;;;1.50;;
1811;SDS011;904;47.814;11.134;2024-01-30T13:11:32;4.80;;;1.83;;
1811;SDS011;904;47.814;11.134;2024-01-30T13:14:01;7.03;;;1.60;;
1811;SDS011;904;47.814;11.134;2024-01-30T13:16:28;4.03;;;1.60;;
1811;SDS011;904;47.814;11.134;2024-01-30T13:18:55;3.70;;;1.43;;
1811;SDS011;904;47.814;11.134;2024-01-30T13:21:22;5.47;;;1.50;;
1811;SDS011;904;47.814;11.134;2024-01-30T13:23:51;2.80;;;1.70;;
1811;SDS011;904;47.814;11.134;2024-01-30T13:26:19;3.70;;;1.20;;
1811;SDS011;904;47.814;11.134;2024-01-30T13:28:47;3.33;;;1.90;;
1811;SDS011;904;47.814;11.134;2024-01-30T13:31:14;2.90;;;1.60;;
1811;SDS011;904;47.814;11.134;2024-01-30T13:33:41;4.60;;;1.30;;
1811;SDS011;904;47.814;11.134;2024-01-30T13:36:08;3.10;;;1.70;;
1811;SDS011;904;47.814;11.134;2024-01-30T13:38:36;5.90;;;1.57;;
1811;SDS011;904;47.814;11.134;2024-01-30T13:41:05;3.10;;;1.70;;
1811;SDS011;904;47.814;11.134;2024-01-30T13:43:32;2.70;;;1.43;;
1811;SDS011;904;47.814;11.134;2024-01-30T13:45:59;2.83;;;1.40;;
1811;SDS011;904;47.814;11.134;2024-01-30T13:48:26;2.87;;;1.33;;
1811;SDS011;904;47.814;11.134;2024-01-30T13:50:54;3.27;;;1.30;;
1811;SDS011;904;47.814;11.134;2024-01-30T13:53:21;5.43;;;1.20;;
1811;SDS011;904;47.814;11.134;2024-01-30T13:55:48;6.00;;;1.73;;
1811;SDS011;904;47.814;11.134;2024-01-30T13:58:17;4.77;;;1.70;;
1811;SDS011;904;47.814;11.134;2024-01-30T14:00:44;6.43;;;1.40;;
1811;SDS011;904;47.814;11.134;2024-01-30T14:03:11;2.97;;;1.40;;
1811;SDS011;904;47.814;11.134;2024-01-30T14:05:37;3.17;;;1.50;;
1811;SDS011;904;47.814;11.134;2024-01-30T14:08:05;3.27;;;1.90;;
1811;SDS011;904;47.814;11.134;2024-01-30T14:10:33;2.77;;;1.67;;
1811;SDS011;904;47.814;11.134;2024-01-30T14:13:00;7.00;;;1.83;;
1811;SDS011;904;47.814;11.134;2024-01-30T14:15:29;3.97;;;1.50;;
1811;SDS011;904;47.814;11.134;2024-01-30T14:17:56;3.17;;;1.67;;
1811;SDS011;904;47.814;11.134;2024-01-30T14:20:23;2.90;;;1.60;;
1811;SDS011;904;47.814;11.134;2024-01-30T14:22:50;4.40;;;1.97;;
1811;SDS011;904;47.814;11.134;2024-01-30T14:25:18;3.80;;;1.67;;
1811;SDS011;904;47.814;11.134;2024-01-30T14:27:45;4.10;;;2.10;;
1811;SDS011;904;47.814;11.134;2024-01-30T14:30:12;2.60;;;1.53;;
1811;SDS011;904;47.814;11.134;2024-01-30T14:32:41;4.50;;;1.77;;
1811;SDS011;904;47.814;11.134;2024-01-30T14:35:09;3.30;;;1.30;;
1811;SDS011;904;47.814;11.134;2024-01-30T14:37:37;3.30;;;1.70;;
1811;SDS011;904;47.814;11.134;2024-01-30T14:40:04;3.40;;;2.10;;
1811;SDS011;904;47.814;11.134;2024-01-30T14:42:32;3.23;;;1.33;;
1811;SDS011;904;47.814;11.134;2024-01-30T14:45:04;5.40;;;4.23;;
1811;SDS011;904;47.814;11.134;2024-01-30T14:47:34;4.43;;;2.67;;
1811;SDS011;904;47.814;11.134;2024-01-30T14:50:03;4.77;;;1.90;;
1811;SDS011;904;47.814;11.134;2024-01-30T14:52:31;5.97;;;2.50;;
1811;SDS011;904;47.814;11.134;2024-01-30T14:54:58;7.83;;;2.10;;
1811;SDS011;904;47.814;11.134;2024-01-30T14:57:25;3.77;;;1.90;;
1811;SDS011;904;47.814;11.134;2024-01-30T14:59:52;6.10;;;2.30;;
1811;SDS011;904;47.814;11.134;2024-01-30T15:02:19;5.50;;;2.10;;
1811;SDS011;904;47.814;11.134;2024-01-30T15:04:46;3.80;;;1.83;;
1811;SDS011;904;47.814;11.134;2024-01-30T15:07:14;7.03;;;2.63;;
1811;SDS011;904;47.814;11.134;2024-01-30T15:09:41;5.70;;;2.30;;
1811;SDS011;904;47.814;11.134;2024-01-30T15:12:08;5.33;;;2.10;;
1811;SDS011;904;47.814;11.134;2024-01-30T15:14:35;5.00;;;2.33;;
1811;SDS011;904;47.814;11.134;2024-01-30T15:17:02;6.50;;;2.30;;
1811;SDS011;904;47.814;11.134;2024-01-30T15:19:29;4.67;;;2.47;;